sensor_id;sensor_type;location;lat;lon;timestamp;P1;durP1;ratioP1;P2;durP2;ratioP2
25525;SDS011;13424;48.424;11.258;2022-07-03T00:01:34;9.02;;;7.65;;
25525;SDS011;13424;48.424;11.258;2022-07-03T00:04:00;6.55;;;5.25;;
25525;SDS011;13424;48.424;11.258;2022-07-03T00:06:27;9.23;;;7.75;;
25525;SDS011;13424;48.424;11.258;2022-07-03T00:08:56;9.75;;;5.95;;
25525;SDS011;13424;48.424;11.258;2022-07-03T00:11:28;5.63;;;5.13;;
25525;SDS011;13424;48.424;11.258;2022-07-03T00:13:56;6.60;;;5.18;;
25525;SDS011;13424;48.424;11.258;2022-07-03T00:16:22;6.18;;;4.90;;
25525;SDS011;13424;48.424;11.258;2022-07-03T00:18:49;6.78;;;5.00;;
25525;SDS011;13424;48.424;11.258;2022-07-03T00:21:28;13.98;;;4.75;;
25525;SDS011;13424;48.424;11.258;2022-07-03T00:24:22;5.93;;;5.43;;
25525;SDS011;13424;48.424;11.258;2022-07-03T00:26:58;8.30;;;5.43;;
25525;SDS011;13424;48.424;11.258;2022-07-03T00:29:29;15.40;;;9.20;;
25525;SDS011;13424;48.424;11.258;2022-07-03T00:32:03;15.32;;;7.25;;
25525;SDS011;13424;48.424;11.258;2022-07-03T00:34:35;10.80;;;6.30;;
25525;SDS011;13424;48.424;11.258;2022-07-03T00:37:06;10.70;;;6.45;;
25525;SDS011;13424;48.424;11.258;2022-07-03T00:39:41;7.95;;;5.70;;
25525;SDS011;13424;48.424;11.258;2022-07-03T00:42:09;10.75;;;7.22;;
25525;SDS011;13424;48.424;11.258;2022-07-03T00:44:50;9.68;;;6.03;;
25525;SDS011;13424;48.424;11.258;2022-07-03T00:47:20;10.57;;;6.10;;
25525;SDS011;13424;48.424;11.258;2022-07-03T00:54:21;4.80;;;3.88;;
25525;SDS011;13424;48.424;11.258;2022-07-03T00:56:52;4.80;;;4.38;;
25525;SDS011;13424;48.424;11.258;2022-07-03T00:59:20;4.95;;;3.75;;
25525;SDS011;13424;48.424;11.258;2022-07-03T01:01:47;4.65;;;3.50;;
25525;SDS011;13424;48.424;11.258;2022-07-03T01:04:29;4.25;;;3.85;;
25525;SDS011;13424;48.424;11.258;2022-07-03T01:07:43;4.38;;;3.83;;
25525;SDS011;13424;48.424;11.258;2022-07-03T01:13:38;3.80;;;3.45;;
25525;SDS011;13424;48.424;11.258;2022-07-03T01:19:36;4.25;;;3.47;;
25525;SDS011;13424;48.424;11.258;2022-07-03T01:26:38;5.97;;;4.00;;
25525;SDS011;13424;48.424;11.258;2022-07-03T01:29:14;4.28;;;3.85;;
25525;SDS011;13424;48.424;11.258;2022-07-03T01:31:54;4.13;;;3.83;;
25525;SDS011;13424;48.424;11.258;2022-07-03T01:34:22;4.78;;;3.45;;
25525;SDS011;13424;48.424;11.258;2022-07-03T01:36:55;4.35;;;3.92;;
25525;SDS011;13424;48.424;11.258;2022-07-03T01:39:26;7.22;;;3.92;;
25525;SDS011;13424;48.424;11.258;2022-07-03T01:41:53;6.93;;;4.28;;
25525;SDS011;13424;48.424;11.258;2022-07-03T01:44:24;5.32;;;4.43;;
25525;SDS011;13424;48.424;11.258;2022-07-03T01:46:53;7.90;;;5.07;;
25525;SDS011;13424;48.424;11.258;2022-07-03T01:49:26;5.10;;;4.60;;
25525;SDS011;13424;48.424;11.258;2022-07-03T01:51:53;4.55;;;4.13;;
25525;SDS011;13424;48.424;11.258;2022-07-03T01:54:23;5.18;;;4.68;;
25525;SDS011;13424;48.424;11.258;2022-07-03T01:56:51;5.32;;;4.50;;
25525;SDS011;13424;48.424;11.258;2022-07-03T01:59:19;5.10;;;4.05;;
25525;SDS011;13424;48.424;11.258;2022-07-03T02:01:57;7.63;;;4.60;;
25525;SDS011;13424;48.424;11.258;2022-07-03T02:04:44;5.10;;;4.45;;
25525;SDS011;13424;48.424;11.258;2022-07-03T02:11:15;4.43;;;3.50;;
25525;SDS011;13424;48.424;11.258;2022-07-03T02:16:19;4.97;;;4.47;;
25525;SDS011;13424;48.424;11.258;2022-07-03T02:19:17;5.82;;;3.97;;
25525;SDS011;13424;48.424;11.258;2022-07-03T02:21:49;6.43;;;4.57;;
25525;SDS011;13424;48.424;11.258;2022-07-03T02:24:24;5.50;;;5.00;;
25525;SDS011;13424;48.424;11.258;2022-07-03T02:26:56;5.88;;;4.45;;
25525;SDS011;13424;48.424;11.258;2022-07-03T02:29:47;5.05;;;4.10;;
25525;SDS011;13424;48.424;11.258;2022-07-03T02:32:21;4.35;;;3.95;;
25525;SDS011;13424;48.424;11.258;2022-07-03T02:35:04;5.53;;;4.00;;
25525;SDS011;13424;48.424;11.258;2022-07-03T02:37:39;4.43;;;4.03;;
25525;SDS011;13424;48.424;11.258;2022-07-03T02:40:31;12.15;;;4.95;;
25525;SDS011;13424;48.424;11.258;2022-07-03T02:43:19;8.90;;;4.35;;
25525;SDS011;13424;48.424;11.258;2022-07-03T02:46:31;5.00;;;4.47;;
25525;SDS011;13424;48.424;11.258;2022-07-03T02:49:22;5.85;;;4.60;;
25525;SDS011;13424;48.424;11.258;2022-07-03T02:55:34;8.23;;;5.55;;
25525;SDS011;13424;48.424;11.258;2022-07-03T03:01:48;7.53;;;5.65;;
25525;SDS011;13424;48.424;11.258;2022-07-03T03:04:30;5.53;;;4.90;;
25525;SDS011;13424;48.424;11.258;2022-07-03T03:07:14;5.38;;;4.85;;
25525;SDS011;13424;48.424;11.258;2022-07-03T03:09:47;5.78;;;4.95;;
25525;SDS011;13424;48.424;11.258;2022-07-03T03:12:14;6.68;;;4.53;;
25525;SDS011;13424;48.424;11.258;2022-07-03T03:14:48;5.95;;;4.88;;
25525;SDS011;13424;48.424;11.258;2022-07-03T03:17:25;5.55;;;5.05;;
25525;SDS011;13424;48.424;11.258;2022-07-03T03:19:57;6.07;;;5.05;;
25525;SDS011;13424;48.424;11.258;2022-07-03T03:25:50;8.13;;;4.95;;
25525;SDS011;13424;48.424;11.258;2022-07-03T03:28:18;5.88;;;5.28;;
25525;SDS011;13424;48.424;11.258;2022-07-03T03:34:44;7.65;;;4.72;;
25525;SDS011;13424;48.424;11.258;2022-07-03T03:37:13;8.93;;;5.43;;
25525;SDS011;13424;48.424;11.258;2022-07-03T03:39:40;5.22;;;4.72;;
25525;SDS011;13424;48.424;11.258;2022-07-03T03:42:09;5.28;;;4.78;;
25525;SDS011;13424;48.424;11.258;2022-07-03T03:44:35;7.50;;;5.53;;
25525;SDS011;13424;48.424;11.258;2022-07-03T03:47:01;7.53;;;5.68;;
25525;SDS011;13424;48.424;11.258;2022-07-03T03:49:28;8.68;;;4.78;;
25525;SDS011;13424;48.424;11.258;2022-07-03T03:51:54;6.80;;;5.90;;
25525;SDS011;13424;48.424;11.258;2022-07-03T03:54:21;5.78;;;5.13;;
25525;SDS011;13424;48.424;11.258;2022-07-03T03:56:47;8.63;;;5.70;;
25525;SDS011;13424;48.424;11.258;2022-07-03T03:59:13;7.13;;;5.57;;
25525;SDS011;13424;48.424;11.258;2022-07-03T04:01:40;5.88;;;5.28;;
25525;SDS011;13424;48.424;11.258;2022-07-03T04:04:06;7.43;;;5.72;;
25525;SDS011;13424;48.424;11.258;2022-07-03T04:06:32;6.40;;;5.53;;
25525;SDS011;13424;48.424;11.258;2022-07-03T04:08:58;5.38;;;4.85;;
25525;SDS011;13424;48.424;11.258;2022-07-03T04:11:24;6.65;;;5.25;;
25525;SDS011;13424;48.424;11.258;2022-07-03T04:13:50;5.45;;;4.95;;
25525;SDS011;13424;48.424;11.258;2022-07-03T04:16:18;5.32;;;4.82;;
25525;SDS011;13424;48.424;11.258;2022-07-03T04:18:44;5.35;;;4.85;;
25525;SDS011;13424;48.424;11.258;2022-07-03T04:21:10;6.28;;;5.15;;
25525;SDS011;13424;48.424;11.258;2022-07-03T04:23:36;5.90;;;4.63;;
25525;SDS011;13424;48.424;11.258;2022-07-03T04:26:03;5.07;;;4.60;;
25525;SDS011;13424;48.424;11.258;2022-07-03T04:28:30;6.43;;;4.70;;
25525;SDS011;13424;48.424;11.258;2022-07-03T04:30:56;6.90;;;4.40;;
25525;SDS011;13424;48.424;11.258;2022-07-03T04:33:22;6.75;;;4.53;;
25525;SDS011;13424;48.424;11.258;2022-07-03T04:35:48;4.82;;;3.60;;
25525;SDS011;13424;48.424;11.258;2022-07-03T04:38:14;5.00;;;4.50;;
25525;SDS011;13424;48.424;11.258;2022-07-03T04:44:15;5.50;;;5.00;;
25525;SDS011;13424;48.424;11.258;2022-07-03T04:46:41;6.72;;;5.00;;
25525;SDS011;13424;48.424;11.258;2022-07-03T04:49:07;7.50;;;4.55;;
25525;SDS011;13424;48.424;11.258;2022-07-03T04:51:33;5.80;;;4.13;;
25525;SDS011;13424;48.424;11.258;2022-07-03T04:53:59;4.13;;;3.75;;
25525;SDS011;13424;48.424;11.258;2022-07-03T04:56:28;5.65;;;4.32;;
25525;SDS011;13424;48.424;11.258;2022-07-03T04:58:54;5.25;;;4.25;;
25525;SDS011;13424;48.424;11.258;2022-07-03T05:01:19;4.25;;;3.85;;
25525;SDS011;13424;48.424;11.258;2022-07-03T05:07:50;6.22;;;3.90;;
25525;SDS011;13424;48.424;11.258;2022-07-03T05:10:16;6.65;;;4.25;;
25525;SDS011;13424;48.424;11.258;2022-07-03T05:12:42;4.38;;;3.97;;
25525;SDS011;13424;48.424;11.258;2022-07-03T05:15:09;4.05;;;3.67;;
25525;SDS011;13424;48.424;11.258;2022-07-03T05:17:35;4.85;;;3.80;;
25525;SDS011;13424;48.424;11.258;2022-07-03T05:20:06;4.15;;;3.75;;
25525;SDS011;13424;48.424;11.258;2022-07-03T05:22:57;4.00;;;3.70;;
25525;SDS011;13424;48.424;11.258;2022-07-03T05:25:29;4.75;;;3.55;;
25525;SDS011;13424;48.424;11.258;2022-07-03T05:27:57;11.85;;;4.25;;
25525;SDS011;13424;48.424;11.258;2022-07-03T05:30:25;3.90;;;3.55;;
25525;SDS011;13424;48.424;11.258;2022-07-03T05:33:09;5.93;;;3.85;;
25525;SDS011;13424;48.424;11.258;2022-07-03T05:35:35;4.35;;;3.35;;
25525;SDS011;13424;48.424;11.258;2022-07-03T05:38:01;4.30;;;3.70;;
25525;SDS011;13424;48.424;11.258;2022-07-03T05:40:27;4.80;;;3.90;;
25525;SDS011;13424;48.424;11.258;2022-07-03T05:42:53;3.60;;;3.30;;
25525;SDS011;13424;48.424;11.258;2022-07-03T05:45:19;5.05;;;3.45;;
25525;SDS011;13424;48.424;11.258;2022-07-03T05:47:45;5.00;;;3.70;;
25525;SDS011;13424;48.424;11.258;2022-07-03T05:50:14;4.80;;;3.70;;
25525;SDS011;13424;48.424;11.258;2022-07-03T05:52:40;4.38;;;3.90;;
25525;SDS011;13424;48.424;11.258;2022-07-03T05:55:07;4.88;;;3.40;;
25525;SDS011;13424;48.424;11.258;2022-07-03T05:57:33;3.97;;;3.58;;
25525;SDS011;13424;48.424;11.258;2022-07-03T06:00:01;4.15;;;3.75;;
25525;SDS011;13424;48.424;11.258;2022-07-03T06:02:31;3.88;;;3.33;;
25525;SDS011;13424;48.424;11.258;2022-07-03T06:04:57;5.03;;;4.25;;
25525;SDS011;13424;48.424;11.258;2022-07-03T06:07:22;6.95;;;3.75;;
25525;SDS011;13424;48.424;11.258;2022-07-03T06:09:49;3.85;;;3.58;;
25525;SDS011;13424;48.424;11.258;2022-07-03T06:12:14;4.18;;;3.10;;
25525;SDS011;13424;48.424;11.258;2022-07-03T06:14:40;3.50;;;3.20;;
25525;SDS011;13424;48.424;11.258;2022-07-03T06:17:06;3.50;;;3.20;;
25525;SDS011;13424;48.424;11.258;2022-07-03T06:19:32;4.18;;;3.78;;
25525;SDS011;13424;48.424;11.258;2022-07-03T06:22:01;4.72;;;3.75;;
25525;SDS011;13424;48.424;11.258;2022-07-03T06:24:27;4.03;;;3.38;;
25525;SDS011;13424;48.424;11.258;2022-07-03T06:26:53;3.97;;;3.60;;
25525;SDS011;13424;48.424;11.258;2022-07-03T06:29:19;4.03;;;3.72;;
25525;SDS011;13424;48.424;11.258;2022-07-03T06:31:51;3.83;;;3.10;;
25525;SDS011;13424;48.424;11.258;2022-07-03T06:34:18;4.72;;;3.55;;
25525;SDS011;13424;48.424;11.258;2022-07-03T06:36:44;4.20;;;3.65;;
25525;SDS011;13424;48.424;11.258;2022-07-03T06:39:10;4.10;;;3.63;;
25525;SDS011;13424;48.424;11.258;2022-07-03T06:41:36;3.70;;;3.40;;
25525;SDS011;13424;48.424;11.258;2022-07-03T06:44:02;4.10;;;3.78;;
25525;SDS011;13424;48.424;11.258;2022-07-03T06:46:28;3.58;;;3.30;;
25525;SDS011;13424;48.424;11.258;2022-07-03T06:48:54;8.93;;;3.70;;
25525;SDS011;13424;48.424;11.258;2022-07-03T06:51:20;7.60;;;3.50;;
25525;SDS011;13424;48.424;11.258;2022-07-03T06:53:46;5.97;;;3.42;;
25525;SDS011;13424;48.424;11.258;2022-07-03T06:56:12;7.22;;;3.42;;
25525;SDS011;13424;48.424;11.258;2022-07-03T06:58:38;2.95;;;2.75;;
25525;SDS011;13424;48.424;11.258;2022-07-03T07:01:04;3.65;;;3.35;;
25525;SDS011;13424;48.424;11.258;2022-07-03T07:04:01;4.80;;;2.85;;
25525;SDS011;13424;48.424;11.258;2022-07-03T07:06:28;3.53;;;3.20;;
25525;SDS011;13424;48.424;11.258;2022-07-03T07:08:54;3.13;;;2.88;;
25525;SDS011;13424;48.424;11.258;2022-07-03T07:15:14;2.88;;;2.67;;
25525;SDS011;13424;48.424;11.258;2022-07-03T07:17:40;3.05;;;2.83;;
25525;SDS011;13424;48.424;11.258;2022-07-03T07:20:07;2.90;;;2.70;;
25525;SDS011;13424;48.424;11.258;2022-07-03T07:26:20;3.33;;;3.13;;
25525;SDS011;13424;48.424;11.258;2022-07-03T07:28:46;3.35;;;3.05;;
25525;SDS011;13424;48.424;11.258;2022-07-03T07:31:12;4.50;;;3.25;;
25525;SDS011;13424;48.424;11.258;2022-07-03T07:33:38;3.67;;;3.10;;
25525;SDS011;13424;48.424;11.258;2022-07-03T07:36:04;3.20;;;2.95;;
25525;SDS011;13424;48.424;11.258;2022-07-03T07:38:30;4.70;;;3.28;;
25525;SDS011;13424;48.424;11.258;2022-07-03T07:40:56;8.85;;;4.00;;
25525;SDS011;13424;48.424;11.258;2022-07-03T07:43:22;3.30;;;3.00;;
25525;SDS011;13424;48.424;11.258;2022-07-03T07:45:48;3.30;;;3.00;;
25525;SDS011;13424;48.424;11.258;2022-07-03T07:48:16;3.53;;;3.22;;
25525;SDS011;13424;48.424;11.258;2022-07-03T07:50:43;3.85;;;3.55;;
25525;SDS011;13424;48.424;11.258;2022-07-03T07:53:09;3.65;;;3.35;;
25525;SDS011;13424;48.424;11.258;2022-07-03T07:55:36;3.80;;;3.42;;
25525;SDS011;13424;48.424;11.258;2022-07-03T07:58:01;5.28;;;3.42;;
25525;SDS011;13424;48.424;11.258;2022-07-03T08:00:27;3.42;;;3.22;;
25525;SDS011;13424;48.424;11.258;2022-07-03T08:02:53;3.40;;;3.00;;
25525;SDS011;13424;48.424;11.258;2022-07-03T08:05:38;3.90;;;3.30;;
25525;SDS011;13424;48.424;11.258;2022-07-03T08:08:09;4.00;;;3.60;;
25525;SDS011;13424;48.424;11.258;2022-07-03T08:10:50;3.53;;;3.10;;
25525;SDS011;13424;48.424;11.258;2022-07-03T08:13:17;3.35;;;2.95;;
25525;SDS011;13424;48.424;11.258;2022-07-03T08:15:44;5.47;;;3.10;;
25525;SDS011;13424;48.424;11.258;2022-07-03T08:18:13;3.75;;;3.13;;
25525;SDS011;13424;48.424;11.258;2022-07-03T08:20:39;5.35;;;3.35;;
25525;SDS011;13424;48.424;11.258;2022-07-03T08:23:06;5.13;;;2.60;;
25525;SDS011;13424;48.424;11.258;2022-07-03T08:25:32;3.55;;;3.25;;
25525;SDS011;13424;48.424;11.258;2022-07-03T08:27:59;3.35;;;3.05;;
25525;SDS011;13424;48.424;11.258;2022-07-03T08:30:25;4.07;;;3.15;;
25525;SDS011;13424;48.424;11.258;2022-07-03T08:32:53;4.32;;;3.33;;
25525;SDS011;13424;48.424;11.258;2022-07-03T08:37:49;2.88;;;2.67;;
25525;SDS011;13424;48.424;11.258;2022-07-03T08:40:17;3.10;;;2.80;;
25525;SDS011;13424;48.424;11.258;2022-07-03T08:42:46;3.10;;;2.90;;
25525;SDS011;13424;48.424;11.258;2022-07-03T08:45:19;3.72;;;2.78;;
25525;SDS011;13424;48.424;11.258;2022-07-03T08:47:47;2.72;;;2.53;;
25525;SDS011;13424;48.424;11.258;2022-07-03T08:50:16;3.00;;;2.70;;
25525;SDS011;13424;48.424;11.258;2022-07-03T08:52:44;2.92;;;2.67;;
25525;SDS011;13424;48.424;11.258;2022-07-03T08:59:09;2.28;;;2.17;;
25525;SDS011;13424;48.424;11.258;2022-07-03T09:01:35;1.90;;;1.80;;
25525;SDS011;13424;48.424;11.258;2022-07-03T09:04:06;3.38;;;1.98;;
25525;SDS011;13424;48.424;11.258;2022-07-03T09:06:39;1.63;;;1.52;;
25525;SDS011;13424;48.424;11.258;2022-07-03T09:09:07;1.98;;;1.80;;
25525;SDS011;13424;48.424;11.258;2022-07-03T09:11:36;2.55;;;1.70;;
25525;SDS011;13424;48.424;11.258;2022-07-03T09:14:05;1.50;;;1.40;;
25525;SDS011;13424;48.424;11.258;2022-07-03T09:16:35;1.92;;;1.83;;
25525;SDS011;13424;48.424;11.258;2022-07-03T09:19:02;1.80;;;1.70;;
25525;SDS011;13424;48.424;11.258;2022-07-03T09:21:40;1.70;;;1.60;;
25525;SDS011;13424;48.424;11.258;2022-07-03T09:24:09;1.60;;;1.50;;
25525;SDS011;13424;48.424;11.258;2022-07-03T09:26:36;1.33;;;1.27;;
25525;SDS011;13424;48.424;11.258;2022-07-03T09:29:17;2.00;;;1.90;;
25525;SDS011;13424;48.424;11.258;2022-07-03T09:31:42;2.05;;;1.60;;
25525;SDS011;13424;48.424;11.258;2022-07-03T09:34:21;1.80;;;1.70;;
25525;SDS011;13424;48.424;11.258;2022-07-03T09:36:51;2.60;;;1.92;;
25525;SDS011;13424;48.424;11.258;2022-07-03T09:39:28;1.70;;;1.60;;
25525;SDS011;13424;48.424;11.258;2022-07-03T09:44:40;1.45;;;1.40;;
25525;SDS011;13424;48.424;11.258;2022-07-03T09:47:22;1.88;;;1.70;;
25525;SDS011;13424;48.424;11.258;2022-07-03T09:52:37;1.60;;;1.50;;
25525;SDS011;13424;48.424;11.258;2022-07-03T09:57:59;1.70;;;1.52;;
25525;SDS011;13424;48.424;11.258;2022-07-03T10:00:31;1.40;;;1.30;;
25525;SDS011;13424;48.424;11.258;2022-07-03T10:03:07;1.80;;;1.35;;
25525;SDS011;13424;48.424;11.258;2022-07-03T10:05:35;1.40;;;1.30;;
25525;SDS011;13424;48.424;11.258;2022-07-03T10:08:11;2.35;;;1.58;;
25525;SDS011;13424;48.424;11.258;2022-07-03T10:10:45;1.15;;;1.15;;
25525;SDS011;13424;48.424;11.258;2022-07-03T10:13:13;1.80;;;1.50;;
25525;SDS011;13424;48.424;11.258;2022-07-03T10:18:44;1.38;;;1.27;;
25525;SDS011;13424;48.424;11.258;2022-07-03T10:21:17;1.50;;;1.40;;
25525;SDS011;13424;48.424;11.258;2022-07-03T10:23:43;1.52;;;1.15;;
25525;SDS011;13424;48.424;11.258;2022-07-03T10:26:10;1.30;;;1.27;;
25525;SDS011;13424;48.424;11.258;2022-07-03T10:28:36;1.88;;;1.45;;
25525;SDS011;13424;48.424;11.258;2022-07-03T10:31:02;1.42;;;1.33;;
25525;SDS011;13424;48.424;11.258;2022-07-03T10:33:29;1.50;;;1.40;;
25525;SDS011;13424;48.424;11.258;2022-07-03T10:35:56;2.15;;;1.63;;
25525;SDS011;13424;48.424;11.258;2022-07-03T10:41:43;2.05;;;1.60;;
25525;SDS011;13424;48.424;11.258;2022-07-03T10:44:34;1.83;;;1.55;;
25525;SDS011;13424;48.424;11.258;2022-07-03T10:47:47;1.85;;;1.35;;
25525;SDS011;13424;48.424;11.258;2022-07-03T10:50:15;1.83;;;1.00;;
25525;SDS011;13424;48.424;11.258;2022-07-03T10:52:50;1.50;;;1.40;;
25525;SDS011;13424;48.424;11.258;2022-07-03T10:55:17;1.45;;;1.35;;
25525;SDS011;13424;48.424;11.258;2022-07-03T10:58:08;1.10;;;0.85;;
25525;SDS011;13424;48.424;11.258;2022-07-03T11:01:00;1.38;;;1.27;;
25525;SDS011;13424;48.424;11.258;2022-07-03T11:03:52;1.52;;;1.38;;
25525;SDS011;13424;48.424;11.258;2022-07-03T11:09:11;2.13;;;0.98;;
25525;SDS011;13424;48.424;11.258;2022-07-03T11:11:42;2.75;;;1.45;;
25525;SDS011;13424;48.424;11.258;2022-07-03T11:14:24;1.95;;;0.90;;
25525;SDS011;13424;48.424;11.258;2022-07-03T11:17:20;1.05;;;1.05;;
25525;SDS011;13424;48.424;11.258;2022-07-03T11:19:48;0.88;;;0.88;;
25525;SDS011;13424;48.424;11.258;2022-07-03T11:22:53;1.58;;;1.02;;
25525;SDS011;13424;48.424;11.258;2022-07-03T11:25:39;0.93;;;0.93;;
25525;SDS011;13424;48.424;11.258;2022-07-03T11:34:49;1.55;;;1.10;;
25525;SDS011;13424;48.424;11.258;2022-07-03T11:37:22;3.17;;;1.10;;
25525;SDS011;13424;48.424;11.258;2022-07-03T11:39:48;1.30;;;0.90;;
25525;SDS011;13424;48.424;11.258;2022-07-03T11:42:20;1.45;;;0.80;;
25525;SDS011;13424;48.424;11.258;2022-07-03T11:44:47;1.15;;;1.08;;
25525;SDS011;13424;48.424;11.258;2022-07-03T11:47:14;1.00;;;1.00;;
25525;SDS011;13424;48.424;11.258;2022-07-03T11:49:47;2.00;;;1.05;;
25525;SDS011;13424;48.424;11.258;2022-07-03T11:52:30;1.52;;;1.02;;
25525;SDS011;13424;48.424;11.258;2022-07-03T11:54:58;1.48;;;1.10;;
25525;SDS011;13424;48.424;11.258;2022-07-03T11:57:24;1.80;;;1.10;;
25525;SDS011;13424;48.424;11.258;2022-07-03T11:59:51;1.10;;;1.00;;
25525;SDS011;13424;48.424;11.258;2022-07-03T12:02:52;1.83;;;1.30;;
25525;SDS011;13424;48.424;11.258;2022-07-03T12:05:18;1.27;;;1.20;;
25525;SDS011;13424;48.424;11.258;2022-07-03T12:07:44;1.05;;;1.05;;
25525;SDS011;13424;48.424;11.258;2022-07-03T12:10:10;1.30;;;1.20;;
25525;SDS011;13424;48.424;11.258;2022-07-03T12:12:37;1.00;;;0.90;;
25525;SDS011;13424;48.424;11.258;2022-07-03T12:15:03;1.45;;;0.90;;
25525;SDS011;13424;48.424;11.258;2022-07-03T12:17:29;1.05;;;0.98;;
25525;SDS011;13424;48.424;11.258;2022-07-03T12:19:57;2.60;;;1.15;;
25525;SDS011;13424;48.424;11.258;2022-07-03T12:22:35;1.15;;;1.00;;
25525;SDS011;13424;48.424;11.258;2022-07-03T12:27:43;1.38;;;1.00;;
25525;SDS011;13424;48.424;11.258;2022-07-03T12:30:21;1.10;;;1.00;;
25525;SDS011;13424;48.424;11.258;2022-07-03T12:32:50;2.10;;;1.33;;
25525;SDS011;13424;48.424;11.258;2022-07-03T12:35:26;1.23;;;1.13;;
25525;SDS011;13424;48.424;11.258;2022-07-03T12:37:53;1.00;;;0.90;;
25525;SDS011;13424;48.424;11.258;2022-07-03T12:40:20;1.00;;;1.00;;
25525;SDS011;13424;48.424;11.258;2022-07-03T12:45:24;2.13;;;1.13;;
25525;SDS011;13424;48.424;11.258;2022-07-03T12:48:02;2.10;;;0.80;;
25525;SDS011;13424;48.424;11.258;2022-07-03T12:50:48;3.95;;;0.90;;
25525;SDS011;13424;48.424;11.258;2022-07-03T12:53:30;1.30;;;0.95;;
25525;SDS011;13424;48.424;11.258;2022-07-03T12:56:01;1.40;;;1.10;;
25525;SDS011;13424;48.424;11.258;2022-07-03T12:58:38;1.88;;;1.02;;
25525;SDS011;13424;48.424;11.258;2022-07-03T13:01:34;0.80;;;0.80;;
25525;SDS011;13424;48.424;11.258;2022-07-03T13:04:08;0.70;;;0.65;;
25525;SDS011;13424;48.424;11.258;2022-07-03T13:06:43;2.90;;;0.93;;
25525;SDS011;13424;48.424;11.258;2022-07-03T13:09:10;0.70;;;0.70;;
25525;SDS011;13424;48.424;11.258;2022-07-03T13:11:39;0.75;;;0.75;;
25525;SDS011;13424;48.424;11.258;2022-07-03T13:20:23;0.80;;;0.80;;
25525;SDS011;13424;48.424;11.258;2022-07-03T13:22:55;2.25;;;1.00;;
25525;SDS011;13424;48.424;11.258;2022-07-03T13:25:24;0.98;;;0.77;;
25525;SDS011;13424;48.424;11.258;2022-07-03T13:27:50;1.20;;;1.17;;
25525;SDS011;13424;48.424;11.258;2022-07-03T13:30:28;1.15;;;0.98;;
25525;SDS011;13424;48.424;11.258;2022-07-03T13:32:55;2.05;;;1.20;;
25525;SDS011;13424;48.424;11.258;2022-07-03T13:35:21;1.42;;;1.33;;
25525;SDS011;13424;48.424;11.258;2022-07-03T13:37:47;2.17;;;1.20;;
25525;SDS011;13424;48.424;11.258;2022-07-03T13:40:12;1.27;;;1.00;;
25525;SDS011;13424;48.424;11.258;2022-07-03T13:42:39;0.82;;;0.82;;
25525;SDS011;13424;48.424;11.258;2022-07-03T13:45:05;1.67;;;0.80;;
25525;SDS011;13424;48.424;11.258;2022-07-03T13:47:42;1.00;;;0.90;;
25525;SDS011;13424;48.424;11.258;2022-07-03T13:50:09;4.45;;;1.25;;
25525;SDS011;13424;48.424;11.258;2022-07-03T13:52:47;1.80;;;1.23;;
25525;SDS011;13424;48.424;11.258;2022-07-03T13:55:13;1.00;;;1.00;;
25525;SDS011;13424;48.424;11.258;2022-07-03T14:01:41;2.72;;;0.80;;
25525;SDS011;13424;48.424;11.258;2022-07-03T14:04:08;0.88;;;0.88;;
25525;SDS011;13424;48.424;11.258;2022-07-03T14:06:35;1.15;;;0.90;;
25525;SDS011;13424;48.424;11.258;2022-07-03T14:09:02;1.33;;;0.90;;
25525;SDS011;13424;48.424;11.258;2022-07-03T14:11:34;3.58;;;1.23;;
25525;SDS011;13424;48.424;11.258;2022-07-03T14:14:00;2.65;;;1.05;;
25525;SDS011;13424;48.424;11.258;2022-07-03T14:16:26;0.95;;;0.95;;
25525;SDS011;13424;48.424;11.258;2022-07-03T14:18:52;1.40;;;1.30;;
25525;SDS011;13424;48.424;11.258;2022-07-03T14:24:37;1.38;;;0.90;;
25525;SDS011;13424;48.424;11.258;2022-07-03T14:27:03;1.63;;;1.10;;
25525;SDS011;13424;48.424;11.258;2022-07-03T14:29:48;3.22;;;1.30;;
25525;SDS011;13424;48.424;11.258;2022-07-03T14:32:32;0.90;;;0.90;;
25525;SDS011;13424;48.424;11.258;2022-07-03T14:35:00;1.40;;;1.23;;
25525;SDS011;13424;48.424;11.258;2022-07-03T14:37:28;2.28;;;1.20;;
25525;SDS011;13424;48.424;11.258;2022-07-03T14:39:54;0.90;;;0.80;;
25525;SDS011;13424;48.424;11.258;2022-07-03T14:42:21;3.25;;;1.50;;
25525;SDS011;13424;48.424;11.258;2022-07-03T14:44:47;3.47;;;0.90;;
25525;SDS011;13424;48.424;11.258;2022-07-03T14:47:13;1.05;;;1.02;;
25525;SDS011;13424;48.424;11.258;2022-07-03T14:49:42;3.25;;;1.30;;
25525;SDS011;13424;48.424;11.258;2022-07-03T14:52:08;1.20;;;1.10;;
25525;SDS011;13424;48.424;11.258;2022-07-03T14:54:35;1.30;;;1.20;;
25525;SDS011;13424;48.424;11.258;2022-07-03T14:57:02;1.50;;;1.20;;
25525;SDS011;13424;48.424;11.258;2022-07-03T15:00:01;0.98;;;0.98;;
25525;SDS011;13424;48.424;11.258;2022-07-03T15:05:35;1.23;;;1.10;;
25525;SDS011;13424;48.424;11.258;2022-07-03T15:11:20;1.42;;;1.33;;
25525;SDS011;13424;48.424;11.258;2022-07-03T15:14:06;1.30;;;1.20;;
25525;SDS011;13424;48.424;11.258;2022-07-03T15:16:35;3.85;;;1.23;;
25525;SDS011;13424;48.424;11.258;2022-07-03T15:19:03;1.60;;;0.98;;
25525;SDS011;13424;48.424;11.258;2022-07-03T15:21:31;3.28;;;1.38;;
25525;SDS011;13424;48.424;11.258;2022-07-03T15:24:02;4.30;;;1.20;;
25525;SDS011;13424;48.424;11.258;2022-07-03T15:26:31;1.75;;;1.15;;
25525;SDS011;13424;48.424;11.258;2022-07-03T15:28:59;2.85;;;1.20;;
25525;SDS011;13424;48.424;11.258;2022-07-03T15:31:29;1.90;;;1.33;;
25525;SDS011;13424;48.424;11.258;2022-07-03T15:34:02;6.30;;;1.45;;
25525;SDS011;13424;48.424;11.258;2022-07-03T15:36:38;2.45;;;1.15;;
25525;SDS011;13424;48.424;11.258;2022-07-03T15:39:23;2.38;;;1.15;;
25525;SDS011;13424;48.424;11.258;2022-07-03T15:42:17;1.40;;;1.15;;
25525;SDS011;13424;48.424;11.258;2022-07-03T15:45:06;5.45;;;1.48;;
25525;SDS011;13424;48.424;11.258;2022-07-03T15:47:52;2.25;;;1.20;;
25525;SDS011;13424;48.424;11.258;2022-07-03T15:53:28;1.52;;;0.95;;
25525;SDS011;13424;48.424;11.258;2022-07-03T15:56:03;3.00;;;1.48;;
25525;SDS011;13424;48.424;11.258;2022-07-03T15:58:34;2.05;;;1.33;;
25525;SDS011;13424;48.424;11.258;2022-07-03T16:01:03;2.42;;;1.40;;
25525;SDS011;13424;48.424;11.258;2022-07-03T16:04:03;1.92;;;1.40;;
25525;SDS011;13424;48.424;11.258;2022-07-03T16:06:37;1.10;;;1.10;;
25525;SDS011;13424;48.424;11.258;2022-07-03T16:09:06;2.05;;;1.88;;
25525;SDS011;13424;48.424;11.258;2022-07-03T16:11:34;1.08;;;1.08;;
25525;SDS011;13424;48.424;11.258;2022-07-03T16:14:02;1.40;;;1.30;;
25525;SDS011;13424;48.424;11.258;2022-07-03T16:16:31;2.10;;;1.50;;
25525;SDS011;13424;48.424;11.258;2022-07-03T16:19:02;1.08;;;1.08;;
25525;SDS011;13424;48.424;11.258;2022-07-03T16:21:30;2.97;;;1.48;;
25525;SDS011;13424;48.424;11.258;2022-07-03T16:23:58;1.52;;;1.10;;
25525;SDS011;13424;48.424;11.258;2022-07-03T16:26:26;2.97;;;1.00;;
25525;SDS011;13424;48.424;11.258;2022-07-03T16:28:56;2.90;;;1.25;;
25525;SDS011;13424;48.424;11.258;2022-07-03T16:31:29;1.58;;;1.48;;
25525;SDS011;13424;48.424;11.258;2022-07-03T16:34:15;1.73;;;1.40;;
25525;SDS011;13424;48.424;11.258;2022-07-03T16:36:53;2.45;;;1.23;;
25525;SDS011;13424;48.424;11.258;2022-07-03T16:39:37;1.52;;;1.25;;
25525;SDS011;13424;48.424;11.258;2022-07-03T16:42:06;1.52;;;1.00;;
25525;SDS011;13424;48.424;11.258;2022-07-03T16:44:38;4.78;;;1.88;;
25525;SDS011;13424;48.424;11.258;2022-07-03T16:47:06;1.10;;;1.00;;
25525;SDS011;13424;48.424;11.258;2022-07-03T16:49:35;1.60;;;1.10;;